Rumford Point, Maine
Current Conditions -  °F | °C
As of 6:52 AM on Thursday 29 Jan 2015 (Local Time) from KBML Reporting Station
Clear Clear  
Wind Chill: -23°   Ceiling: Unl
Heat Index: -23°   Visibility: 9mi
Dew Point: -29°   Wind: 0mph
Humidity: 74%   Direction: NA
Pressure: 30.28"   Gusts: NA
Location:  44.5488°N, 70.6285°W
Report Text: KBML 291152Z AUTO 00000KT 9SM CLR M31/M34 A3028 RMK AO2 SLP293 T13061339 11272 21328 53005
Loading
Personal Weather Stations






























Interactive Weather Map New forecast layout! Learn more

10-Day Weather Forecast

Advertisements
Track Severe Weather on mobile